createdAt,value
2023-02-09T00:01:25.015Z,-2.47
2023-02-09T00:03:38.203Z,-2.46
2023-02-09T00:05:50.940Z,-2.47
2023-02-09T00:08:03.694Z,-2.47
2023-02-09T00:10:16.445Z,-2.46
2023-02-09T00:12:47.647Z,-2.47
2023-02-09T00:15:00.284Z,-2.48
2023-02-09T00:17:13.520Z,-2.46
2023-02-09T00:19:26.050Z,-2.45
2023-02-09T00:21:39.431Z,-2.44
2023-02-09T00:23:51.975Z,-2.44
2023-02-09T00:26:08.205Z,-2.41
2023-02-09T00:28:21.334Z,-2.41
2023-02-09T00:30:34.024Z,-2.40
2023-02-09T00:32:46.796Z,-2.40
2023-02-09T00:34:59.454Z,-2.42
2023-02-09T00:37:12.185Z,-2.43
2023-02-09T00:39:24.779Z,-2.45
2023-02-09T00:41:56.395Z,-2.46
2023-02-09T00:44:10.199Z,-2.50
2023-02-09T00:46:22.783Z,-2.52
2023-02-09T00:48:35.921Z,-2.52
2023-02-09T00:50:51.244Z,-2.51
2023-02-09T00:53:03.811Z,-2.51
2023-02-09T00:55:17.157Z,-2.52
2023-02-09T00:57:29.775Z,-2.52
2023-02-09T00:59:42.571Z,-2.53
2023-02-09T01:01:55.127Z,-2.56
2023-02-09T01:04:08.034Z,-2.57
2023-02-09T01:06:20.665Z,-2.59
2023-02-09T01:08:34.030Z,-2.60
2023-02-09T01:10:46.953Z,-2.60
2023-02-09T01:12:59.771Z,-2.61
2023-02-09T01:15:13.160Z,-2.62
2023-02-09T01:17:25.682Z,-2.61
2023-02-09T01:19:38.239Z,-2.60
2023-02-09T01:21:50.719Z,-2.59
2023-02-09T01:24:03.575Z,-2.59
2023-02-09T01:26:17.192Z,-2.60
2023-02-09T01:28:29.892Z,-2.60
2023-02-09T01:30:42.569Z,-2.59
2023-02-09T01:32:55.136Z,-2.58
2023-02-09T01:35:08.269Z,-2.57
2023-02-09T01:37:21.240Z,-2.57
2023-02-09T01:39:33.806Z,-2.57
2023-02-09T01:41:46.433Z,-2.56
2023-02-09T01:44:02.913Z,-2.54
2023-02-09T01:46:15.578Z,-2.52
2023-02-09T01:48:30.590Z,-2.52
2023-02-09T01:50:46.851Z,-2.50
2023-02-09T01:53:00.351Z,-2.50
2023-02-09T01:55:17.456Z,-2.51
2023-02-09T01:57:37.383Z,-2.56
2023-02-09T01:59:56.171Z,-2.62
2023-02-09T02:02:09.800Z,-2.68
2023-02-09T02:04:22.655Z,-2.74
2023-02-09T02:06:36.028Z,-2.78
2023-02-09T02:09:00.680Z,-2.80
2023-02-09T02:11:13.371Z,-2.86
2023-02-09T02:13:25.972Z,-2.89
2023-02-09T02:15:55.990Z,-2.89
2023-02-09T02:18:26.972Z,-2.94
2023-02-09T02:21:04.051Z,-2.90
2023-02-09T02:23:38.195Z,-2.85
2023-02-09T02:26:24.902Z,-2.78
2023-02-09T02:29:24.756Z,-2.75
2023-02-09T02:31:59.202Z,-2.74
2023-02-09T02:34:24.194Z,-2.71
2023-02-09T02:36:48.377Z,-2.66
2023-02-09T02:39:22.462Z,-2.61
2023-02-09T02:42:26.782Z,-2.58
2023-02-09T02:44:41.845Z,-2.57
2023-02-09T02:46:59.730Z,-2.53
2023-02-09T02:49:34.591Z,-2.49
2023-02-09T02:51:51.711Z,-2.47
2023-02-09T02:54:12.301Z,-2.46
2023-02-09T02:56:36.341Z,-2.44
2023-02-09T02:58:51.417Z,-2.42
2023-02-09T03:01:07.527Z,-2.42
2023-02-09T03:03:24.840Z,-2.41
2023-02-09T03:05:38.506Z,-2.42
2023-02-09T03:07:51.663Z,-2.41
2023-02-09T03:10:23.772Z,-2.39
2023-02-09T03:13:04.780Z,-2.40
2023-02-09T03:15:36.236Z,-2.43
2023-02-09T03:18:20.501Z,-2.44
2023-02-09T03:20:42.469Z,-2.47
2023-02-09T03:23:02.467Z,-2.45
2023-02-09T03:25:23.971Z,-2.45
2023-02-09T03:27:49.537Z,-2.44
2023-02-09T03:30:04.842Z,-2.44
2023-02-09T03:32:18.454Z,-2.42
2023-02-09T03:34:31.084Z,-2.42
2023-02-09T03:36:50.336Z,-2.41
2023-02-09T03:39:03.314Z,-2.41
2023-02-09T03:41:15.886Z,-2.41
2023-02-09T03:43:46.995Z,-2.40
2023-02-09T03:45:59.467Z,-2.41
2023-02-09T03:48:12.191Z,-2.40
2023-02-09T03:50:24.739Z,-2.40
2023-02-09T03:52:37.377Z,-2.40
2023-02-09T03:54:49.942Z,-2.40
2023-02-09T03:57:03.511Z,-2.40
2023-02-09T03:59:16.153Z,-2.39
2023-02-09T04:01:28.656Z,-2.40
2023-02-09T04:03:41.227Z,-2.40
2023-02-09T04:05:53.762Z,-2.42
2023-02-09T04:08:06.323Z,-2.42
2023-02-09T04:10:18.994Z,-2.43
2023-02-09T04:12:31.489Z,-2.44
2023-02-09T04:14:44.047Z,-2.47
2023-02-09T04:16:56.578Z,-2.50
2023-02-09T04:19:09.738Z,-2.53
2023-02-09T04:21:22.424Z,-2.55
2023-02-09T04:23:35.852Z,-2.55
2023-02-09T04:25:48.368Z,-2.56
2023-02-09T04:28:01.044Z,-2.57
2023-02-09T04:30:13.775Z,-2.59
2023-02-09T04:32:26.315Z,-2.61
2023-02-09T04:34:38.909Z,-2.63
2023-02-09T04:36:51.538Z,-2.65
2023-02-09T04:39:04.239Z,-2.68
2023-02-09T04:41:16.783Z,-2.71
2023-02-09T04:43:30.244Z,-2.74
2023-02-09T04:45:43.282Z,-2.78
2023-02-09T04:47:55.881Z,-2.81
2023-02-09T04:50:08.895Z,-2.84
2023-02-09T04:52:21.464Z,-2.86
2023-02-09T04:54:34.010Z,-2.89
2023-02-09T04:56:47.220Z,-2.91
2023-02-09T04:59:18.313Z,-2.94
2023-02-09T05:01:31.076Z,-2.99
2023-02-09T05:03:43.744Z,-3.00
2023-02-09T05:05:58.009Z,-3.01
2023-02-09T05:08:10.596Z,-3.03
2023-02-09T05:10:23.250Z,-3.05
2023-02-09T05:12:35.843Z,-3.05
2023-02-09T05:14:48.876Z,-3.05
2023-02-09T05:17:01.651Z,-3.06
2023-02-09T05:19:14.226Z,-3.07
2023-02-09T05:21:26.810Z,-3.10
2023-02-09T05:23:39.459Z,-3.11
2023-02-09T05:25:52.234Z,-3.10
2023-02-09T05:28:04.882Z,-3.09
2023-02-09T05:30:17.685Z,-3.08
2023-02-09T05:32:30.247Z,-3.07
2023-02-09T05:34:42.861Z,-3.05
2023-02-09T05:36:55.397Z,-3.06
2023-02-09T05:39:10.997Z,-3.05
2023-02-09T05:41:42.361Z,-3.05
2023-02-09T05:43:54.933Z,-3.07
2023-02-09T05:46:08.534Z,-3.07
2023-02-09T05:48:21.253Z,-3.05
2023-02-09T05:50:35.668Z,-3.05
2023-02-09T05:52:48.340Z,-3.04
2023-02-09T05:55:00.891Z,-3.04
2023-02-09T05:57:13.695Z,-3.03
2023-02-09T05:59:26.370Z,-3.03
2023-02-09T06:01:39.893Z,-3.04
2023-02-09T06:03:52.572Z,-3.05
2023-02-09T06:06:05.652Z,-3.04
2023-02-09T06:08:18.281Z,-3.05
2023-02-09T06:10:30.832Z,-3.06
2023-02-09T06:12:43.478Z,-3.07
2023-02-09T06:14:58.648Z,-3.08
2023-02-09T06:17:15.190Z,-3.10
2023-02-09T06:19:27.727Z,-3.11
2023-02-09T06:21:40.259Z,-3.11
2023-02-09T06:23:52.804Z,-3.10
2023-02-09T06:26:07.410Z,-3.09
2023-02-09T06:28:20.476Z,-3.08
2023-02-09T06:30:33.084Z,-3.07
2023-02-09T06:32:45.658Z,-3.04
2023-02-09T06:34:58.318Z,-3.03
2023-02-09T06:37:10.875Z,-3.00
2023-02-09T06:39:24.276Z,-2.97
2023-02-09T06:41:37.463Z,-2.93
2023-02-09T06:43:50.097Z,-2.87
2023-02-09T06:46:11.229Z,-2.83
2023-02-09T06:48:23.841Z,-2.82
2023-02-09T06:50:37.832Z,-2.78
2023-02-09T06:52:50.611Z,-2.72
2023-02-09T06:55:04.289Z,-2.65
2023-02-09T06:57:17.244Z,-2.58
2023-02-09T06:59:29.770Z,-2.49
2023-02-09T07:01:42.368Z,-2.39
2023-02-09T07:03:54.878Z,-2.29
2023-02-09T07:06:10.706Z,-2.19
2023-02-09T07:08:23.331Z,-2.07
2023-02-09T07:10:36.163Z,-1.93
2023-02-09T07:12:48.756Z,-1.81
2023-02-09T07:15:01.274Z,-1.70
2023-02-09T07:17:13.964Z,-1.55
2023-02-09T07:19:26.575Z,-1.44
2023-02-09T07:21:39.162Z,-1.33
2023-02-09T07:23:53.195Z,-1.20
2023-02-09T07:26:07.921Z,-1.08
2023-02-09T07:28:20.841Z,-0.95
2023-02-09T07:30:33.451Z,-0.81
2023-02-09T07:32:45.997Z,-0.67
2023-02-09T07:34:58.515Z,-0.54
2023-02-09T07:37:11.196Z,-0.42
2023-02-09T07:39:23.880Z,-0.30
2023-02-09T07:41:36.524Z,-0.16
2023-02-09T07:43:49.103Z,-0.02
2023-02-09T07:46:04.125Z,0.13
2023-02-09T07:48:16.786Z,0.26
2023-02-09T07:50:29.391Z,0.38
2023-02-09T07:52:41.896Z,0.51
2023-02-09T07:54:54.453Z,0.64
2023-02-09T07:57:07.035Z,0.75
2023-02-09T07:59:19.593Z,0.87
2023-02-09T08:01:33.391Z,0.97
2023-02-09T08:03:48.092Z,1.06
2023-02-09T08:06:04.173Z,1.21
2023-02-09T08:08:16.758Z,1.34
2023-02-09T08:10:29.780Z,1.45
2023-02-09T08:13:00.440Z,1.53
2023-02-09T08:15:16.331Z,1.58
2023-02-09T08:17:29.655Z,1.65
2023-02-09T08:19:42.334Z,1.76
2023-02-09T08:21:54.871Z,1.87
2023-02-09T08:24:09.664Z,1.96
2023-02-09T08:26:22.503Z,2.05
2023-02-09T08:28:44.037Z,2.16
2023-02-09T08:30:57.510Z,2.27
2023-02-09T08:33:10.150Z,2.45
2023-02-09T08:35:22.760Z,2.58
2023-02-09T08:37:35.358Z,2.74
2023-02-09T08:39:47.907Z,2.95
2023-02-09T08:42:00.442Z,3.10
2023-02-09T08:44:13.284Z,3.22
2023-02-09T08:46:26.086Z,3.36
2023-02-09T08:48:41.936Z,3.47
2023-02-09T08:50:54.404Z,3.60
2023-02-09T08:53:07.799Z,3.75
2023-02-09T08:55:20.356Z,3.88
2023-02-09T08:57:43.669Z,4.03
2023-02-09T08:59:57.220Z,4.11
2023-02-09T09:02:09.718Z,4.18
2023-02-09T09:04:22.476Z,4.28
2023-02-09T09:06:35.512Z,4.43
2023-02-09T09:08:47.998Z,4.62
2023-02-09T09:11:01.239Z,4.78
2023-02-09T09:13:13.974Z,5.01
2023-02-09T09:15:26.576Z,5.22
2023-02-09T09:17:39.156Z,5.27
2023-02-09T09:19:56.335Z,5.41
2023-02-09T09:22:09.024Z,5.55
2023-02-09T09:24:23.187Z,5.66
2023-02-09T09:26:35.857Z,5.79
2023-02-09T09:28:52.076Z,5.92
2023-02-09T09:31:12.858Z,5.94
2023-02-09T09:33:25.544Z,5.92
2023-02-09T09:35:38.288Z,5.91
2023-02-09T09:37:50.798Z,5.95
2023-02-09T09:40:03.744Z,6.08
2023-02-09T09:42:24.291Z,6.22
2023-02-09T09:44:44.222Z,6.26
2023-02-09T09:47:06.368Z,6.33
2023-02-09T09:49:28.059Z,6.40
2023-02-09T09:51:45.609Z,6.49
2023-02-09T09:53:59.837Z,6.52
2023-02-09T09:56:13.287Z,6.52
2023-02-09T09:58:28.256Z,6.69
2023-02-09T10:00:42.389Z,6.95
2023-02-09T10:02:55.134Z,7.09
2023-02-09T10:05:18.524Z,7.13
2023-02-09T10:07:34.016Z,7.05
2023-02-09T10:09:59.240Z,7.07
2023-02-09T10:12:38.483Z,7.15
2023-02-09T10:14:51.065Z,7.27
2023-02-09T10:17:03.726Z,7.41
2023-02-09T10:19:20.172Z,7.63
2023-02-09T10:21:35.856Z,7.72
2023-02-09T10:24:10.103Z,7.74
2023-02-09T10:26:25.470Z,7.71
2023-02-09T10:28:42.518Z,7.59
2023-02-09T10:30:57.101Z,7.53
2023-02-09T10:33:17.356Z,7.53
2023-02-09T10:35:43.286Z,7.58
2023-02-09T10:38:01.858Z,7.57
2023-02-09T10:40:29.657Z,7.55
2023-02-09T10:42:57.731Z,7.75
2023-02-09T10:45:21.047Z,7.86
2023-02-09T10:47:33.635Z,7.83
2023-02-09T10:49:53.379Z,7.73
2023-02-09T10:52:16.860Z,7.67
2023-02-09T10:54:29.532Z,7.66
2023-02-09T10:56:45.812Z,7.70
2023-02-09T10:59:15.915Z,7.71
2023-02-09T11:01:34.587Z,7.73
2023-02-09T11:04:21.357Z,7.84
2023-02-09T11:06:55.359Z,7.92
2023-02-09T11:09:14.068Z,7.92
2023-02-09T11:11:38.667Z,8.04
2023-02-09T11:13:51.251Z,8.10
2023-02-09T11:16:14.538Z,8.12
2023-02-09T11:18:32.515Z,8.16
2023-02-09T11:21:02.298Z,8.28
2023-02-09T11:23:38.483Z,8.35
2023-02-09T11:26:19.604Z,8.39
2023-02-09T11:28:41.833Z,8.35
2023-02-09T11:31:12.682Z,8.47
2023-02-09T11:33:53.366Z,8.54
2023-02-09T11:36:30.557Z,8.65
2023-02-09T11:38:57.055Z,8.72
2023-02-09T11:41:34.349Z,8.77
2023-02-09T11:43:49.472Z,8.82
2023-02-09T11:46:10.855Z,8.96
2023-02-09T11:48:31.700Z,9.10
2023-02-09T11:50:54.888Z,9.09
2023-02-09T11:53:21.206Z,9.14
2023-02-09T11:55:39.101Z,9.22
2023-02-09T11:57:59.083Z,9.30
2023-02-09T12:00:20.725Z,9.41
2023-02-09T12:02:52.915Z,9.43
2023-02-09T12:05:08.320Z,9.17
2023-02-09T12:07:32.740Z,9.14
2023-02-09T12:09:55.789Z,9.22
2023-02-09T12:12:43.657Z,9.15
2023-02-09T12:15:11.200Z,9.03
2023-02-09T12:17:47.694Z,8.88
2023-02-09T12:20:01.875Z,8.94
2023-02-09T12:22:33.332Z,9.12
2023-02-09T12:25:25.407Z,9.15
2023-02-09T12:27:41.821Z,8.96
2023-02-09T12:29:54.362Z,8.94
2023-02-09T12:32:07.930Z,9.03
2023-02-09T12:34:27.568Z,9.16
2023-02-09T12:37:01.897Z,9.15
2023-02-09T12:39:25.135Z,9.11
2023-02-09T12:41:39.577Z,9.12
2023-02-09T12:44:08.780Z,9.18
2023-02-09T12:46:43.904Z,8.96
2023-02-09T12:49:09.627Z,8.81
2023-02-09T12:51:37.157Z,8.72
2023-02-09T12:53:49.817Z,8.59
2023-02-09T12:56:11.065Z,8.53
2023-02-09T12:58:54.271Z,8.55
2023-02-09T13:01:07.133Z,8.60
2023-02-09T13:03:22.527Z,8.64
2023-02-09T13:05:39.361Z,8.73
2023-02-09T13:08:16.353Z,8.90
2023-02-09T13:10:31.752Z,8.90
2023-02-09T13:12:50.560Z,8.88
2023-02-09T13:15:13.428Z,8.80
2023-02-09T13:17:44.161Z,8.65
2023-02-09T13:20:18.527Z,8.46
2023-02-09T13:23:16.827Z,8.36
2023-02-09T13:25:38.390Z,8.37
2023-02-09T13:27:51.030Z,8.42
2023-02-09T13:30:03.944Z,8.41
2023-02-09T13:32:16.487Z,8.45
2023-02-09T13:34:38.464Z,8.45
2023-02-09T13:37:05.962Z,8.39
2023-02-09T13:39:24.790Z,8.33
2023-02-09T13:41:40.892Z,8.34
2023-02-09T13:43:53.593Z,8.34
2023-02-09T13:46:06.567Z,8.37
2023-02-09T13:48:29.818Z,8.32
2023-02-09T13:50:47.781Z,8.28
2023-02-09T13:53:10.960Z,8.18
2023-02-09T13:55:25.957Z,7.97
2023-02-09T13:57:42.238Z,7.85
2023-02-09T13:59:55.689Z,7.79
2023-02-09T14:02:19.526Z,7.71
2023-02-09T14:04:34.506Z,7.62
2023-02-09T14:07:03.145Z,7.51
2023-02-09T14:09:20.935Z,7.44
2023-02-09T14:11:51.643Z,7.42
2023-02-09T14:14:27.182Z,7.31
2023-02-09T14:16:52.679Z,7.20
2023-02-09T14:19:25.283Z,7.16
2023-02-09T14:21:39.928Z,7.12
2023-02-09T14:23:58.202Z,7.04
2023-02-09T14:26:13.755Z,6.91
2023-02-09T14:28:26.459Z,6.82
2023-02-09T14:30:50.399Z,6.76
2023-02-09T14:33:06.171Z,6.59
2023-02-09T14:35:29.156Z,6.48
2023-02-09T14:37:42.781Z,6.36
2023-02-09T14:39:56.514Z,6.23
2023-02-09T14:42:09.084Z,6.13
2023-02-09T14:44:22.276Z,6.05
2023-02-09T14:46:56.177Z,5.99
2023-02-09T14:49:08.776Z,5.87
2023-02-09T14:51:22.833Z,5.82
2023-02-09T14:53:35.414Z,5.75
2023-02-09T14:55:48.586Z,5.67
2023-02-09T14:58:01.208Z,5.59
2023-02-09T15:00:19.916Z,5.53
2023-02-09T15:02:32.705Z,5.48
2023-02-09T15:04:45.558Z,5.40
2023-02-09T15:07:02.502Z,5.37
2023-02-09T15:09:36.836Z,5.31
2023-02-09T15:12:04.447Z,5.18
2023-02-09T15:14:24.244Z,5.08
2023-02-09T15:16:36.800Z,5.01
2023-02-09T15:18:49.389Z,4.96
2023-02-09T15:21:01.936Z,4.90
2023-02-09T15:23:14.765Z,4.82
2023-02-09T15:25:27.834Z,4.71
2023-02-09T15:27:51.358Z,4.60
2023-02-09T15:30:15.088Z,4.47
2023-02-09T15:32:28.288Z,4.36
2023-02-09T15:34:41.195Z,4.28
2023-02-09T15:36:53.825Z,4.20
2023-02-09T15:39:17.042Z,4.15
2023-02-09T15:41:48.106Z,4.07
2023-02-09T15:44:32.377Z,4.00
2023-02-09T15:47:04.879Z,3.87
2023-02-09T15:49:17.550Z,3.76
2023-02-09T15:51:34.010Z,3.71
2023-02-09T15:53:47.483Z,3.65
2023-02-09T15:56:00.178Z,3.61
2023-02-09T15:58:16.459Z,3.56
2023-02-09T16:00:30.824Z,3.49
2023-02-09T16:02:44.630Z,3.40
2023-02-09T16:04:57.344Z,3.34
2023-02-09T16:07:14.627Z,3.25
2023-02-09T16:09:28.583Z,3.14
2023-02-09T16:11:41.345Z,3.06
2023-02-09T16:13:54.715Z,2.98
2023-02-09T16:16:16.688Z,2.90
2023-02-09T16:18:29.714Z,2.79
2023-02-09T16:20:46.997Z,2.71
2023-02-09T16:23:19.640Z,2.61
2023-02-09T16:25:33.662Z,2.51
2023-02-09T16:27:46.442Z,2.46
2023-02-09T16:29:59.623Z,2.42
2023-02-09T16:32:22.751Z,2.38
2023-02-09T16:34:35.311Z,2.30
2023-02-09T16:36:48.960Z,2.26
2023-02-09T16:39:01.548Z,2.20
2023-02-09T16:41:36.130Z,2.15
2023-02-09T16:43:48.784Z,2.09
2023-02-09T16:46:04.549Z,2.06
2023-02-09T16:48:23.077Z,1.99
2023-02-09T16:50:39.902Z,1.95
2023-02-09T16:52:55.919Z,1.91
2023-02-09T16:55:22.457Z,1.84
2023-02-09T16:57:34.996Z,1.74
2023-02-09T16:59:47.543Z,1.67
2023-02-09T17:02:00.290Z,1.62
2023-02-09T17:04:13.798Z,1.55
2023-02-09T17:06:29.508Z,1.48
2023-02-09T17:08:42.271Z,1.44
2023-02-09T17:10:56.536Z,1.40
2023-02-09T17:13:09.892Z,1.36
2023-02-09T17:15:30.520Z,1.32
2023-02-09T17:17:49.033Z,1.25
2023-02-09T17:20:01.724Z,1.19
2023-02-09T17:22:14.674Z,1.17
2023-02-09T17:24:27.213Z,1.14
2023-02-09T17:26:40.545Z,1.11
2023-02-09T17:28:54.169Z,1.10
2023-02-09T17:31:28.444Z,1.09
2023-02-09T17:33:41.275Z,1.04
2023-02-09T17:36:24.750Z,1.03
2023-02-09T17:38:34.406Z,1.00
2023-02-09T17:40:46.990Z,0.98
2023-02-09T17:42:59.577Z,0.96
2023-02-09T17:45:22.731Z,0.94
2023-02-09T17:47:35.349Z,0.90
2023-02-09T17:49:48.034Z,0.87
2023-02-09T17:52:00.977Z,0.86
2023-02-09T17:54:16.645Z,0.83
2023-02-09T17:56:29.428Z,0.77
2023-02-09T17:58:44.650Z,0.71
2023-02-09T18:00:57.314Z,0.67
2023-02-09T18:03:14.983Z,0.63
2023-02-09T18:05:28.291Z,0.58
2023-02-09T18:07:40.904Z,0.56
2023-02-09T18:09:54.411Z,0.55
2023-02-09T18:12:22.589Z,0.56
2023-02-09T18:14:35.259Z,0.53
2023-02-09T18:16:48.185Z,0.53
2023-02-09T18:19:00.741Z,0.52
2023-02-09T18:21:14.418Z,0.52
2023-02-09T18:23:27.659Z,0.52
2023-02-09T18:25:40.318Z,0.49
2023-02-09T18:27:53.330Z,0.42
2023-02-09T18:30:08.961Z,0.38
2023-02-09T18:32:23.847Z,0.36
2023-02-09T18:34:36.524Z,0.30
2023-02-09T18:36:50.717Z,0.20
2023-02-09T18:39:03.828Z,0.08
2023-02-09T18:41:16.637Z,0.00
2023-02-09T18:43:29.418Z,-0.04
2023-02-09T18:45:42.058Z,-0.03
2023-02-09T18:47:54.826Z,0.00
2023-02-09T18:50:08.048Z,0.04
2023-02-09T18:52:24.907Z,0.05
2023-02-09T18:54:37.446Z,0.06
2023-02-09T18:56:50.053Z,0.08
2023-02-09T18:59:02.694Z,0.08
2023-02-09T19:01:15.533Z,0.07
2023-02-09T19:03:28.140Z,0.07
2023-02-09T19:05:41.169Z,0.08
2023-02-09T19:07:55.446Z,0.09
2023-02-09T19:10:09.172Z,0.07
2023-02-09T19:12:21.976Z,0.05
2023-02-09T19:14:41.417Z,0.03
2023-02-09T19:16:54.104Z,0.02
2023-02-09T19:19:09.525Z,0.02
2023-02-09T19:21:22.286Z,-0.01
2023-02-09T19:23:34.998Z,-0.07
2023-02-09T19:25:48.118Z,-0.13
2023-02-09T19:28:00.976Z,-0.15
2023-02-09T19:30:18.032Z,-0.16
2023-02-09T19:32:30.697Z,-0.18
2023-02-09T19:34:45.364Z,-0.18
2023-02-09T19:36:58.337Z,-0.17
2023-02-09T19:39:11.921Z,-0.15
2023-02-09T19:41:25.732Z,-0.15
2023-02-09T19:43:41.978Z,-0.14
2023-02-09T19:45:58.942Z,-0.13
2023-02-09T19:48:12.335Z,-0.10
2023-02-09T19:50:24.918Z,-0.07
2023-02-09T19:52:38.760Z,-0.06
2023-02-09T19:54:51.420Z,-0.05
2023-02-09T19:57:04.324Z,-0.04
2023-02-09T19:59:17.513Z,-0.04
2023-02-09T20:01:31.566Z,-0.03
2023-02-09T20:03:44.346Z,-0.02
2023-02-09T20:05:57.064Z,-0.00
2023-02-09T20:08:13.259Z,-0.00
2023-02-09T20:10:26.004Z,-0.01
2023-02-09T20:12:38.826Z,0.01
2023-02-09T20:14:53.691Z,0.03
2023-02-09T20:17:06.339Z,0.06
2023-02-09T20:19:19.228Z,0.10
2023-02-09T20:21:31.790Z,0.14
2023-02-09T20:23:45.809Z,0.19
2023-02-09T20:25:59.412Z,0.24
2023-02-09T20:28:14.813Z,0.29
2023-02-09T20:30:27.590Z,0.34
2023-02-09T20:32:40.502Z,0.37
2023-02-09T20:34:54.076Z,0.42
2023-02-09T20:37:06.706Z,0.45
2023-02-09T20:39:19.642Z,0.48
2023-02-09T20:41:32.331Z,0.50
2023-02-09T20:44:03.673Z,0.50
2023-02-09T20:46:45.953Z,0.48
2023-02-09T20:48:59.531Z,0.48
2023-02-09T20:51:12.192Z,0.51
2023-02-09T20:53:24.824Z,0.56
2023-02-09T20:55:37.469Z,0.58
2023-02-09T20:57:50.411Z,0.60
2023-02-09T21:00:09.202Z,0.61
2023-02-09T21:02:21.914Z,0.61
2023-02-09T21:04:34.534Z,0.61
2023-02-09T21:06:47.206Z,0.63
2023-02-09T21:08:59.854Z,0.64
2023-02-09T21:11:13.560Z,0.66
2023-02-09T21:13:26.196Z,0.67
2023-02-09T21:15:41.632Z,0.67
2023-02-09T21:17:54.205Z,0.66
2023-02-09T21:20:07.384Z,0.66
2023-02-09T21:22:19.974Z,0.65
2023-02-09T21:24:33.059Z,0.66
2023-02-09T21:26:45.746Z,0.67
2023-02-09T21:28:58.527Z,0.65
2023-02-09T21:31:12.932Z,0.63
2023-02-09T21:33:25.885Z,0.62
2023-02-09T21:35:39.764Z,0.61
2023-02-09T21:37:52.378Z,0.59
2023-02-09T21:40:06.577Z,0.59
2023-02-09T21:42:28.785Z,0.58
2023-02-09T21:44:41.429Z,0.57
2023-02-09T21:46:54.961Z,0.55
2023-02-09T21:49:07.946Z,0.54
2023-02-09T21:51:21.362Z,0.54
2023-02-09T21:53:33.980Z,0.56
2023-02-09T21:55:46.643Z,0.54
2023-02-09T21:58:00.650Z,0.53
2023-02-09T22:00:13.844Z,0.53
2023-02-09T22:02:27.412Z,0.52
2023-02-09T22:04:40.849Z,0.52
2023-02-09T22:06:53.418Z,0.52
2023-02-09T22:09:06.368Z,0.52
2023-02-09T22:11:18.909Z,0.50
2023-02-09T22:13:31.822Z,0.50
2023-02-09T22:15:44.892Z,0.50
2023-02-09T22:17:57.474Z,0.49
2023-02-09T22:20:11.050Z,0.47
2023-02-09T22:22:23.612Z,0.47
2023-02-09T22:24:36.990Z,0.45
2023-02-09T22:26:49.705Z,0.44
2023-02-09T22:29:02.248Z,0.43
2023-02-09T22:31:18.170Z,0.41
2023-02-09T22:33:30.783Z,0.41
2023-02-09T22:35:43.302Z,0.41
2023-02-09T22:37:56.054Z,0.42
2023-02-09T22:40:09.303Z,0.43
2023-02-09T22:42:21.937Z,0.43
2023-02-09T22:44:34.514Z,0.45
2023-02-09T22:46:47.121Z,0.45
2023-02-09T22:49:01.723Z,0.45
2023-02-09T22:51:17.439Z,0.44
2023-02-09T22:53:29.970Z,0.43
2023-02-09T22:55:42.630Z,0.45
2023-02-09T22:57:55.179Z,0.45
2023-02-09T23:00:13.139Z,0.46
2023-02-09T23:02:25.683Z,0.45
2023-02-09T23:04:38.486Z,0.44
2023-02-09T23:06:51.042Z,0.45
2023-02-09T23:09:07.234Z,0.46
2023-02-09T23:11:20.124Z,0.45
2023-02-09T23:13:33.722Z,0.46
2023-02-09T23:15:46.735Z,0.47
2023-02-09T23:17:59.567Z,0.48
2023-02-09T23:20:12.086Z,0.49
2023-02-09T23:22:24.567Z,0.50
2023-02-09T23:24:37.145Z,0.49
2023-02-09T23:26:49.722Z,0.49
2023-02-09T23:29:06.328Z,0.48
2023-02-09T23:31:18.995Z,0.46
2023-02-09T23:33:32.732Z,0.44
2023-02-09T23:35:45.345Z,0.45
2023-02-09T23:37:57.932Z,0.44
2023-02-09T23:40:11.089Z,0.45
2023-02-09T23:42:23.855Z,0.45
2023-02-09T23:44:36.427Z,0.42
2023-02-09T23:46:49.197Z,0.41
2023-02-09T23:49:01.835Z,0.43
2023-02-09T23:51:18.274Z,0.42
2023-02-09T23:53:31.709Z,0.42
2023-02-09T23:55:50.898Z,0.41
2023-02-09T23:58:03.519Z,0.39
